KDAL METAR and TAF | Updated Today

KDAL METAR

Dallas Love Field

Observation time: 60 min. ago

KDAL 301753Z 22004KT 10SM SCT250 22/09 A3009 RMK AO2 SLP186 T02220094 10222 20078 58005

Need help? Read our tutorial on how to read METARs or read the parsed version below.

Dallas Love Field (KDAL) METAR

  • Weather conditions on Tue, 30 Nov 2021 17:53:00 +0000 (60 min. ago):
  • Present conditions: Dry
  • Clouds: Scattered at 7620 meters
  • Visibility: 16093 meters
  • Wind: 220 degrees at 4 knots
  • Temperature: 22 celsius
  • Dew point: 9 celsius
  • Pressure: 30.09 inHg
  • Remarks: AO2 SLP186 T02220094 10222 20078 58005


Useful to know...

KDAL TAF

Dallas Love Field

KDAL 301720Z 3018/0118 19010KT P6SM FEW250 FM011400 26009KT P6SM FEW250
Observation time: 1:33 hr. ago
Need help? Read our tutorial on how to read TAFs or read the parsed version below.

Parsed version of TAF for Dallas Love Field (KDAL)

  • From 30 November at 18:00 UTC, to day 01 of the month at 18:00 UTC
  • Clouds: A few at 7620 meters
  • Wind: 190 degrees at 10
  • From day 1 of the month at 14:00 UTC
  • Clouds: A few at 7620 meters
  • Wind: 260 degrees at 9